Time,TemperatureF,DewpointF,PressureIn,WindDirection,WindDirectionDegrees,WindSpeedMPH,WindSpeedGustMPH,Humidity,HourlyPrecipIn,Conditions,Clouds,dailyrainin,SolarRadiationWatts/m^2,SoftwareType,DateUTC
2013-07-28 00:02:00,69.0,35.0,-100.00,NW,306,3.0,7.0,28,0.00,,,0.00,0.000000,,2013-07-28 06:02:00,
2013-07-28 00:12:00,69.0,35.0,-100.00,NW,306,3.0,7.0,28,0.00,,,0.00,0.000000,,2013-07-28 06:12:00,
2013-07-28 00:22:00,69.0,35.0,-100.00,NW,306,3.0,7.0,28,0.00,,,0.00,0.000000,,2013-07-28 06:22:00,
2013-07-28 00:32:00,69.0,35.0,-100.00,NW,306,3.0,7.0,28,0.00,,,0.00,0.000000,,2013-07-28 06:32:00,
2013-07-28 01:02:00,65.0,33.0,-100.00,ENE,76,2.0,5.0,30,0.00,,,0.00,0.000000,,2013-07-28 07:02:00,
2013-07-28 01:12:00,65.0,33.0,-100.00,ENE,76,2.0,5.0,30,0.00,,,0.00,0.000000,,2013-07-28 07:12:00,
2013-07-28 01:22:00,65.0,33.0,-100.00,ENE,76,2.0,5.0,30,0.00,,,0.00,0.000000,,2013-07-28 07:22:00,
2013-07-28 01:32:00,65.0,33.0,-100.00,ENE,76,2.0,5.0,30,0.00,,,0.00,0.000000,,2013-07-28 07:32:00,
2013-07-28 02:02:00,63.0,31.0,-100.00,East,93,4.0,5.0,30,0.00,,,0.00,0.000000,,2013-07-28 08:02:00,
2013-07-28 02:12:00,63.0,31.0,-100.00,East,93,4.0,5.0,30,0.00,,,0.00,0.000000,,2013-07-28 08:12:00,
2013-07-28 02:22:00,63.0,31.0,-100.00,East,93,4.0,5.0,30,0.00,,,0.00,0.000000,,2013-07-28 08:22:00,
2013-07-28 02:33:00,63.0,31.0,-100.00,East,93,4.0,5.0,30,0.00,,,0.00,0.000000,,2013-07-28 08:33:00,
2013-07-28 03:02:00,60.0,34.0,-100.00,ESE,105,3.0,5.0,37,-99.99,,,0.00,0.000000,,2013-07-28 09:02:00,
2013-07-28 03:12:00,60.0,34.0,-100.00,ESE,105,3.0,5.0,37,-99.99,,,0.00,0.000000,,2013-07-28 09:12:00,
2013-07-28 03:22:00,60.0,34.0,-100.00,ESE,105,3.0,5.0,37,-99.99,,,0.00,0.000000,,2013-07-28 09:22:00,
2013-07-28 03:32:00,60.0,34.0,-100.00,ESE,105,3.0,5.0,37,-99.99,,,0.00,0.000000,,2013-07-28 09:32:00,
2013-07-28 04:02:00,58.0,33.0,-100.00,East,83,4.0,7.0,39,0.00,,,0.00,0.000000,,2013-07-28 10:02:00,
2013-07-28 04:12:00,58.0,33.0,-100.00,East,83,4.0,7.0,39,0.00,,,0.00,0.000000,,2013-07-28 10:12:00,
2013-07-28 04:22:00,58.0,33.0,-100.00,East,83,4.0,7.0,39,0.00,,,0.00,0.000000,,2013-07-28 10:22:00,
2013-07-28 04:32:00,58.0,33.0,-100.00,East,83,4.0,7.0,39,0.00,,,0.00,0.000000,,2013-07-28 10:32:00,
2013-07-28 05:12:00,56.0,33.0,-100.00,ENE,66,4.0,10.0,41,0.00,,,0.00,0.000000,,2013-07-28 11:12:00,
2013-07-28 05:22:00,56.0,33.0,-100.00,ENE,66,4.0,10.0,41,0.00,,,0.00,0.000000,,2013-07-28 11:22:00,
2013-07-28 06:12:00,55.0,35.0,-100.00,NE,50,1.0,5.0,47,0.00,,,0.00,0.000000,,2013-07-28 12:12:00,
2013-07-28 06:22:00,55.0,35.0,-100.00,NE,50,1.0,5.0,47,0.00,,,0.00,0.000000,,2013-07-28 12:22:00,
2013-07-28 07:02:00,53.0,34.0,-100.00,NE,34,1.0,4.0,49,-99.99,,,0.00,1.000000,,2013-07-28 13:02:00,
2013-07-28 08:33:00,55.0,36.0,-100.00,NE,54,1.0,7.0,49,-99.99,,,0.00,52.000000,,2013-07-28 14:33:00,
2013-07-28 10:22:00,64.0,39.0,-100.00,ESE,104,3.0,6.0,39,0.00,,,0.00,395.000000,,2013-07-28 16:22:00,
2013-07-28 10:33:00,64.0,39.0,-100.00,ESE,104,3.0,6.0,39,0.00,,,0.00,395.000000,,2013-07-28 16:33:00,
2013-07-28 11:02:00,68.0,39.0,-100.00,West,263,2.0,6.0,34,0.00,,,0.00,574.000000,,2013-07-28 17:02:00,
2013-07-28 11:12:00,68.0,39.0,-100.00,West,263,2.0,6.0,34,0.00,,,0.00,574.000000,,2013-07-28 17:12:00,
2013-07-28 11:22:00,68.0,39.0,-100.00,West,263,2.0,6.0,34,0.00,,,0.00,574.000000,,2013-07-28 17:22:00,
2013-07-28 11:32:00,68.0,39.0,-100.00,West,263,2.0,6.0,34,0.00,,,0.00,574.000000,,2013-07-28 17:32:00,
2013-07-28 12:02:00,75.0,34.0,-100.00,SE,137,4.0,10.0,22,0.00,,,0.00,730.000000,,2013-07-28 18:02:00,
2013-07-28 12:12:00,75.0,34.0,-100.00,SE,137,4.0,10.0,22,0.00,,,0.00,730.000000,,2013-07-28 18:12:00,
2013-07-28 12:22:00,75.0,34.0,-100.00,SE,137,4.0,10.0,22,0.00,,,0.00,730.000000,,2013-07-28 18:22:00,
2013-07-28 12:32:00,75.0,34.0,-100.00,SE,137,4.0,10.0,22,0.00,,,0.00,730.000000,,2013-07-28 18:32:00,
2013-07-28 13:12:00,78.0,27.0,-100.00,WSW,242,7.0,21.0,15,0.00,,,0.00,798.000000,,2013-07-28 19:12:00,
2013-07-28 13:22:00,78.0,27.0,-100.00,WSW,242,7.0,21.0,15,0.00,,,0.00,798.000000,,2013-07-28 19:22:00,
2013-07-28 13:32:00,78.0,27.0,-100.00,WSW,242,7.0,21.0,15,0.00,,,0.00,798.000000,,2013-07-28 19:32:00,
2013-07-28 14:02:00,80.0,27.0,-100.00,SW,228,7.0,26.0,14,0.00,,,0.00,851.000000,,2013-07-28 20:02:00,
2013-07-28 14:12:00,80.0,27.0,-100.00,SW,228,7.0,26.0,14,0.00,,,0.00,851.000000,,2013-07-28 20:12:00,
2013-07-28 14:22:00,80.0,27.0,-100.00,SW,228,7.0,26.0,14,0.00,,,0.00,851.000000,,2013-07-28 20:22:00,
2013-07-28 14:33:00,80.0,27.0,-100.00,SW,228,7.0,26.0,14,0.00,,,0.00,851.000000,,2013-07-28 20:33:00,
2013-07-28 15:02:00,80.0,23.0,-100.00,WSW,250,12.0,25.0,12,0.00,,,0.00,919.000000,,2013-07-28 21:02:00,
2013-07-28 15:12:00,80.0,23.0,-100.00,WSW,250,12.0,25.0,12,0.00,,,0.00,919.000000,,2013-07-28 21:12:00,
2013-07-28 15:22:00,80.0,23.0,-100.00,WSW,250,12.0,25.0,12,0.00,,,0.00,919.000000,,2013-07-28 21:22:00,
2013-07-28 15:33:00,80.0,23.0,-100.00,WSW,250,12.0,25.0,12,0.00,,,0.00,919.000000,,2013-07-28 21:33:00,
2013-07-28 16:01:00,80.0,21.0,-100.00,West,263,10.0,22.0,11,0.00,,,0.00,878.000000,,2013-07-28 22:01:00,
2013-07-28 16:12:00,80.0,21.0,-100.00,West,263,10.0,22.0,11,0.00,,,0.00,878.000000,,2013-07-28 22:12:00,
2013-07-28 16:22:00,80.0,21.0,-100.00,West,263,10.0,22.0,11,0.00,,,0.00,878.000000,,2013-07-28 22:22:00,
2013-07-28 16:32:00,80.0,21.0,-100.00,West,263,10.0,22.0,11,0.00,,,0.00,878.000000,,2013-07-28 22:32:00,
2013-07-28 17:12:00,82.0,22.0,-100.00,WSW,251,8.0,18.0,11,0.00,,,0.00,797.000000,,2013-07-28 23:12:00,
2013-07-28 17:22:00,82.0,22.0,-100.00,WSW,251,8.0,18.0,11,0.00,,,0.00,797.000000,,2013-07-28 23:22:00,
2013-07-28 17:32:00,82.0,22.0,-100.00,WSW,251,8.0,18.0,11,0.00,,,0.00,797.000000,,2013-07-28 23:32:00,
2013-07-28 18:02:00,81.0,19.0,-100.00,WNW,287,10.0,21.0,10,0.00,,,0.00,695.000000,,2013-07-29 00:02:00,
2013-07-28 18:12:00,81.0,19.0,-100.00,WNW,287,10.0,21.0,10,0.00,,,0.00,695.000000,,2013-07-29 00:12:00,
2013-07-28 18:22:00,81.0,19.0,-100.00,WNW,287,10.0,21.0,10,0.00,,,0.00,695.000000,,2013-07-29 00:22:00,
2013-07-28 18:32:00,81.0,19.0,-100.00,WNW,287,10.0,21.0,10,0.00,,,0.00,695.000000,,2013-07-29 00:32:00,
2013-07-28 19:02:00,81.0,22.0,-100.00,West,273,9.0,22.0,11,0.00,,,0.00,521.000000,,2013-07-29 01:02:00,
2013-07-28 19:12:00,81.0,22.0,-100.00,West,273,9.0,22.0,11,0.00,,,0.00,521.000000,,2013-07-29 01:12:00,
2013-07-28 19:24:00,81.0,22.0,-100.00,West,273,9.0,22.0,11,0.00,,,0.00,521.000000,,2013-07-29 01:24:00,
2013-07-28 20:04:00,80.0,16.0,-100.00,WNW,283,11.0,19.0,9,0.00,,,0.00,337.000000,,2013-07-29 02:04:00,
2013-07-28 20:12:00,80.0,16.0,-100.00,WNW,283,11.0,19.0,9,0.00,,,0.00,337.000000,,2013-07-29 02:12:00,
2013-07-28 20:24:00,80.0,16.0,-100.00,WNW,283,11.0,19.0,9,0.00,,,0.00,337.000000,,2013-07-29 02:24:00,
2013-07-28 20:34:00,80.0,16.0,-100.00,WNW,283,11.0,19.0,9,0.00,,,0.00,337.000000,,2013-07-29 02:34:00,
2013-07-28 21:03:00,75.0,12.0,-100.00,WNW,296,7.0,17.0,9,0.00,,,0.00,159.000000,,2013-07-29 03:03:00,
2013-07-28 21:14:00,75.0,12.0,-100.00,WNW,296,7.0,17.0,9,0.00,,,0.00,159.000000,,2013-07-29 03:14:00,
2013-07-28 21:22:00,75.0,12.0,-100.00,WNW,296,7.0,17.0,9,0.00,,,0.00,159.000000,,2013-07-29 03:22:00,
2013-07-28 21:33:00,75.0,12.0,-100.00,WNW,296,7.0,17.0,9,0.00,,,0.00,159.000000,,2013-07-29 03:33:00,
2013-07-28 22:02:00,69.0,16.0,-100.00,NW,312,5.0,10.0,13,0.00,,,0.00,7.000000,,2013-07-29 04:02:00,
2013-07-28 22:12:00,69.0,16.0,-100.00,NW,312,5.0,10.0,13,0.00,,,0.00,7.000000,,2013-07-29 04:12:00,
2013-07-28 22:22:00,69.0,16.0,-100.00,NW,312,5.0,10.0,13,0.00,,,0.00,7.000000,,2013-07-29 04:22:00,
2013-07-28 22:32:00,69.0,16.0,-100.00,NW,312,5.0,10.0,13,0.00,,,0.00,7.000000,,2013-07-29 04:32:00,
2013-07-28 23:02:00,66.0,17.0,-100.00,North,356,1.0,7.0,15,0.00,,,0.00,0.000000,,2013-07-29 05:02:00,
2013-07-28 23:12:00,66.0,17.0,-100.00,North,356,1.0,7.0,15,0.00,,,0.00,0.000000,,2013-07-29 05:12:00,
2013-07-28 23:22:00,66.0,17.0,-100.00,North,356,1.0,7.0,15,0.00,,,0.00,0.000000,,2013-07-29 05:22:00,